Time;durP1;ratioP1;P1;durP2;ratioP2;P2;SDS_P1;SDS_P2;PMS_P1;PMS_P2;Temp;Humidity;BMP_temperature;BMP_pressure;BME280_temperature;BME280_humidity;BME280_pressure;Samples;Min_cycle;Max_cycle;Signal;HPM_P1;HPM_P2
2022/04/19 00:00:51;;;;;;;2.90;2.60;;;8.40;99.90;;;;;;5034659;28;20431;-68
2022/04/19 00:03:17;;;;;;;3.23;2.93;;;8.40;99.90;;;;;;5034403;28;20440;-69
2022/04/19 00:05:44;;;;;;;3.10;2.80;;;8.40;99.90;;;;;;5034506;28;20497;-69
2022/04/19 00:08:11;;;;;;;2.87;2.57;;;8.40;99.90;;;;;;5034560;28;20416;-68
2022/04/19 00:10:38;;;;;;;2.80;2.40;;;8.30;99.90;;;;;;5034301;28;20835;-68
2022/04/19 00:13:05;;;;;;;3.03;2.60;;;8.30;99.90;;;;;;5034297;28;20457;-68
2022/04/19 00:15:31;;;;;;;3.20;2.50;;;8.30;99.90;;;;;;5034425;28;20510;-68
2022/04/19 00:18:02;;;;;;;3.23;2.67;;;8.30;99.90;;;;;;5034122;28;20421;-68
2022/04/19 00:20:28;;;;;;;6.20;3.37;;;8.20;99.90;;;;;;5034072;28;20762;-68
2022/04/19 00:22:55;;;;;;;3.73;3.43;;;8.20;99.90;;;;;;5034247;28;20524;-67
2022/04/19 00:25:21;;;;;;;5.60;2.80;;;8.10;99.90;;;;;;5033944;28;20470;-68
2022/04/19 00:27:47;;;;;;;3.17;2.47;;;8.10;99.90;;;;;;5034116;28;21011;-68
2022/04/19 00:30:13;;;;;;;5.77;3.47;;;8.00;99.90;;;;;;5033778;28;20515;-67
2022/04/19 00:32:40;;;;;;;2.97;2.67;;;7.90;99.90;;;;;;5033734;28;20251;-68
2022/04/19 00:35:07;;;;;;;3.07;2.77;;;7.90;99.90;;;;;;5032725;28;20425;-70
2022/04/19 00:37:34;;;;;;;5.50;3.10;;;7.80;99.90;;;;;;5034006;28;20802;-68
2022/04/19 00:40:01;;;;;;;3.77;3.43;;;7.80;99.90;;;;;;5033580;28;20421;-70
2022/04/19 00:42:28;;;;;;;3.87;2.77;;;7.80;99.90;;;;;;5033766;28;20893;-69
2022/04/19 00:44:58;;;;;;;2.97;2.77;;;7.80;99.90;;;;;;5033867;28;20441;-69
2022/04/19 00:47:25;;;;;;;3.47;3.13;;;7.80;99.90;;;;;;5033699;28;20483;-68
2022/04/19 00:49:51;;;;;;;3.13;2.73;;;7.70;99.90;;;;;;5033734;28;20620;-67
2022/04/19 00:52:18;;;;;;;2.67;2.47;;;7.70;99.90;;;;;;5033525;28;20869;-70
2022/04/19 00:54:47;;;;;;;5.43;3.50;;;7.70;99.90;;;;;;5033520;28;20555;-69
2022/04/19 00:57:14;;;;;;;3.53;3.23;;;7.70;99.90;;;;;;5033560;28;20443;-68
2022/04/19 00:59:41;;;;;;;3.07;2.70;;;7.70;99.90;;;;;;5033110;28;20421;-69
2022/04/19 01:02:07;;;;;;;2.97;2.67;;;7.60;99.90;;;;;;5033523;28;20448;-68
2022/04/19 01:04:32;;;;;;;3.20;3.00;;;7.60;99.90;;;;;;5033386;28;20499;-69
2022/04/19 01:06:58;;;;;;;3.50;3.10;;;7.60;99.90;;;;;;5033446;28;20211;-67
2022/04/19 01:09:24;;;;;;;4.70;3.20;;;7.60;99.90;;;;;;5033083;28;20178;-68
2022/04/19 01:14:36;;;;;;;3.30;2.70;;;7.50;99.90;;;;;;5033746;28;20174;-68
2022/04/19 01:17:02;;;;;;;2.97;2.70;;;7.50;99.90;;;;;;5033194;28;20906;-68
2022/04/19 01:19:29;;;;;;;5.00;3.03;;;7.40;99.90;;;;;;5033061;28;20898;-68
2022/04/19 01:21:54;;;;;;;2.83;2.57;;;7.40;99.90;;;;;;5032988;28;20452;-68
2022/04/19 01:24:22;;;;;;;2.90;2.70;;;7.40;99.90;;;;;;5033004;28;20802;-68
2022/04/19 01:26:48;;;;;;;4.70;2.90;;;7.30;99.90;;;;;;5033008;28;20197;-68
2022/04/19 01:29:15;;;;;;;3.63;2.70;;;7.20;99.90;;;;;;5031378;28;20951;-69
2022/04/19 01:31:42;;;;;;;3.90;2.90;;;7.20;99.90;;;;;;5032628;28;20506;-68
2022/04/19 01:34:09;;;;;;;3.67;3.30;;;7.10;99.90;;;;;;5032841;28;20425;-67
2022/04/19 01:36:38;;;;;;;3.20;2.90;;;7.10;99.90;;;;;;5032718;28;20951;-67
2022/04/19 01:39:08;;;;;;;2.70;2.47;;;7.20;99.90;;;;;;5032034;28;20408;-68
2022/04/19 01:41:34;;;;;;;2.80;2.60;;;7.20;99.90;;;;;;5032625;28;20432;-67
2022/04/19 01:44:00;;;;;;;3.00;2.70;;;7.20;99.90;;;;;;5032675;28;20484;-68
2022/04/19 01:46:26;;;;;;;3.63;2.87;;;7.20;99.90;;;;;;5032673;28;20508;-68
2022/04/19 01:48:54;;;;;;;3.60;2.90;;;7.20;99.90;;;;;;5032320;28;20417;-68
2022/04/19 01:51:21;;;;;;;3.07;2.80;;;7.30;99.90;;;;;;5032517;28;20421;-68
2022/04/19 01:53:47;;;;;;;3.07;2.67;;;7.30;99.90;;;;;;5032327;28;20950;-68
2022/04/19 01:56:12;;;;;;;4.23;2.73;;;7.20;99.90;;;;;;5033092;28;20413;-69
2022/04/19 01:58:38;;;;;;;3.30;2.90;;;7.20;99.90;;;;;;5032144;28;20413;-68
2022/04/19 02:01:03;;;;;;;3.20;2.77;;;7.10;99.90;;;;;;5032462;28;20659;-68
2022/04/19 02:03:29;;;;;;;4.10;3.33;;;7.10;99.90;;;;;;5032455;28;20725;-68
2022/04/19 02:05:54;;;;;;;3.97;3.20;;;7.10;99.90;;;;;;5032371;28;20167;-67
2022/04/19 02:08:20;;;;;;;6.30;3.40;;;7.10;99.90;;;;;;5032021;28;20185;-67
2022/04/19 02:10:46;;;;;;;4.33;3.53;;;7.00;99.90;;;;;;5032275;28;20201;-68
2022/04/19 02:13:13;;;;;;;3.47;2.80;;;7.00;99.90;;;;;;5032057;28;20194;-68
2022/04/19 02:15:39;;;;;;;4.67;2.73;;;7.00;99.90;;;;;;5032243;28;20236;-68
2022/04/19 02:18:05;;;;;;;3.60;3.30;;;6.90;99.90;;;;;;5032108;28;20452;-70
2022/04/19 02:20:31;;;;;;;3.70;3.03;;;6.90;99.90;;;;;;5031978;28;20162;-70
2022/04/19 02:22:56;;;;;;;4.60;2.63;;;6.90;99.90;;;;;;5031898;28;20451;-70
2022/04/19 02:25:24;;;;;;;3.63;2.53;;;6.80;99.90;;;;;;5032151;28;20413;-67
2022/04/19 02:27:51;;;;;;;2.80;2.60;;;6.80;99.90;;;;;;5032483;28;20249;-67
2022/04/19 02:30:18;;;;;;;3.30;3.00;;;6.80;99.90;;;;;;5031878;28;20451;-68
2022/04/19 02:32:45;;;;;;;3.80;3.50;;;6.80;99.90;;;;;;5031717;28;20990;-68
2022/04/19 02:35:14;;;;;;;3.20;2.57;;;6.80;99.90;;;;;;5031920;28;20450;-68
2022/04/19 02:37:48;;;;;;;4.83;3.13;;;6.80;99.90;;;;;;5031734;28;20466;-67
2022/04/19 02:40:14;;;;;;;3.20;2.87;;;6.80;99.90;;;;;;5031739;28;20869;-67
2022/04/19 02:42:39;;;;;;;3.37;3.07;;;6.80;99.90;;;;;;5031961;28;20468;-67
2022/04/19 02:45:05;;;;;;;3.47;3.00;;;6.80;99.90;;;;;;5031993;28;20174;-68
2022/04/19 02:47:31;;;;;;;3.87;3.20;;;6.70;99.90;;;;;;5031874;28;20224;-68
2022/04/19 02:49:57;;;;;;;2.90;2.33;;;6.70;99.90;;;;;;5032974;28;20499;-69
2022/04/19 02:52:22;;;;;;;3.80;3.50;;;6.60;99.90;;;;;;5036007;28;20519;-67
2022/04/19 02:54:48;;;;;;;3.13;2.83;;;6.60;99.90;;;;;;5036074;28;20253;-67
2022/04/19 02:57:13;;;;;;;3.50;3.00;;;6.60;99.90;;;;;;5035778;28;20189;-69
2022/04/19 02:59:42;;;;;;;7.60;3.23;;;6.50;99.90;;;;;;5035532;28;20178;-67
2022/04/19 03:02:08;;;;;;;4.83;3.17;;;6.50;99.90;;;;;;5035660;28;20646;-67
2022/04/19 03:04:33;;;;;;;3.70;3.00;;;6.50;99.90;;;;;;5035586;28;20503;-67
2022/04/19 03:06:59;;;;;;;5.80;3.13;;;6.40;99.90;;;;;;5035681;28;20170;-67
2022/04/19 03:09:25;;;;;;;6.50;3.40;;;6.40;99.90;;;;;;5035310;28;20166;-68
2022/04/19 03:11:50;;;;;;;2.50;2.30;;;6.40;99.90;;;;;;5034077;28;20641;-67
2022/04/19 03:14:16;;;;;;;4.17;3.80;;;6.30;99.90;;;;;;5035640;28;20189;-68
2022/04/19 03:16:42;;;;;;;4.20;2.90;;;6.40;99.90;;;;;;5035490;28;20249;-68
2022/04/19 03:19:08;;;;;;;3.37;3.17;;;6.40;99.90;;;;;;5035057;28;20555;-69
2022/04/19 03:21:33;;;;;;;4.20;3.50;;;6.40;99.90;;;;;;5035303;28;20690;-67
2022/04/19 03:29:27;;;;;;;4.37;3.57;;;6.30;99.90;;;;;;5035012;28;20427;-68
2022/04/19 03:31:54;;;;;;;3.50;3.20;;;6.30;99.90;;;;;;5034895;28;20444;-67
2022/04/19 03:34:20;;;;;;;4.27;3.27;;;6.20;99.90;;;;;;5033866;28;20185;-67
2022/04/19 03:36:45;;;;;;;5.13;3.20;;;6.20;99.90;;;;;;5035191;28;20433;-67
2022/04/19 03:39:11;;;;;;;2.80;2.60;;;6.20;99.90;;;;;;5034749;28;20174;-69
2022/04/19 03:41:36;;;;;;;4.43;2.90;;;6.20;99.90;;;;;;5034990;28;20194;-67
2022/04/19 03:44:02;;;;;;;4.07;3.20;;;6.20;99.90;;;;;;5033740;28;20174;-68
2022/04/19 03:46:27;;;;;;;4.53;3.47;;;6.20;99.90;;;;;;5034821;28;20224;-69
2022/04/19 03:48:53;;;;;;;6.63;3.47;;;6.20;99.90;;;;;;5034582;28;20744;-67
2022/04/19 03:51:19;;;;;;;4.53;3.13;;;6.20;99.90;;;;;;5034769;28;20170;-67
2022/04/19 03:53:46;;;;;;;4.43;3.67;;;6.10;99.90;;;;;;5034733;28;20206;-68
2022/04/19 03:56:12;;;;;;;4.90;3.40;;;6.10;99.90;;;;;;5034731;28;20162;-67
2022/04/19 03:58:37;;;;;;;4.33;3.30;;;6.10;99.90;;;;;;5034498;28;20831;-68
2022/04/19 04:01:03;;;;;;;4.43;4.03;;;6.00;99.90;;;;;;5034003;28;20615;-68
2022/04/19 04:03:29;;;;;;;3.83;3.53;;;6.10;99.90;;;;;;5034490;28;20212;-68
2022/04/19 04:05:55;;;;;;;6.90;3.90;;;6.00;99.90;;;;;;5034573;28;20181;-67
2022/04/19 04:08:21;;;;;;;3.80;3.40;;;6.00;99.90;;;;;;5034242;28;20185;-67
2022/04/19 04:10:47;;;;;;;3.70;3.13;;;6.00;99.90;;;;;;5034470;28;20479;-67
2022/04/19 04:13:12;;;;;;;4.10;3.80;;;6.10;99.90;;;;;;5034230;28;20970;-68
2022/04/19 04:15:38;;;;;;;5.50;3.90;;;6.00;99.90;;;;;;5034328;28;20177;-66
2022/04/19 04:18:03;;;;;;;3.53;3.23;;;5.90;99.90;;;;;;5034254;28;20625;-68
2022/04/19 04:20:29;;;;;;;3.30;3.00;;;5.80;99.90;;;;;;5034170;28;20178;-67
2022/04/19 04:22:55;;;;;;;4.80;4.07;;;5.80;99.90;;;;;;5034158;28;20198;-69
2022/04/19 04:25:20;;;;;;;6.50;3.63;;;5.80;99.90;;;;;;5034145;28;20174;-67
2022/04/19 04:27:46;;;;;;;4.63;3.63;;;5.80;99.90;;;;;;5034180;28;20232;-67
2022/04/19 04:30:12;;;;;;;7.03;3.63;;;5.80;99.90;;;;;;5032451;28;20217;-69
2022/04/19 04:32:37;;;;;;;7.10;3.80;;;5.90;99.90;;;;;;5033897;28;20230;-67
2022/04/19 04:35:04;;;;;;;6.57;4.20;;;5.90;99.90;;;;;;5034012;28;20167;-67
2022/04/19 04:37:29;;;;;;;5.40;4.70;;;5.90;99.90;;;;;;5033826;28;20819;-67
2022/04/19 04:39:55;;;;;;;7.33;4.90;;;5.90;99.90;;;;;;5033708;28;20457;-67
2022/04/19 04:42:21;;;;;;;4.63;3.53;;;5.90;99.90;;;;;;5033825;28;20285;-68
2022/04/19 04:44:46;;;;;;;3.83;3.53;;;5.90;99.90;;;;;;5033817;28;20178;-69
2022/04/19 04:49:59;;;;;;;4.70;4.07;;;6.00;99.90;;;;;;5033465;28;20553;-68
2022/04/19 04:52:25;;;;;;;4.13;3.70;;;6.10;99.90;;;;;;5033591;28;20551;-68
2022/04/19 04:54:50;;;;;;;10.07;3.73;;;6.10;99.90;;;;;;5033712;28;20690;-67
2022/04/19 04:57:19;;;;;;;4.40;3.93;;;6.20;99.90;;;;;;5033492;28;20170;-68
2022/04/19 04:59:47;;;;;;;5.03;4.20;;;6.30;99.90;;;;;;5033452;28;20179;-67
2022/04/19 05:02:12;;;;;;;4.77;3.83;;;6.30;99.90;;;;;;5033344;28;20489;-67
2022/04/19 05:04:38;;;;;;;5.70;4.30;;;6.20;99.90;;;;;;5033439;28;20436;-67
2022/04/19 05:07:04;;;;;;;4.90;4.40;;;6.30;99.90;;;;;;5033449;28;20200;-68
2022/04/19 05:09:30;;;;;;;8.13;4.57;;;6.30;99.90;;;;;;5032524;28;20170;-67
2022/04/19 05:11:55;;;;;;;5.20;4.80;;;6.30;99.90;;;;;;5032368;28;20965;-67
2022/04/19 05:14:22;;;;;;;6.30;4.60;;;6.40;99.90;;;;;;5033051;28;20178;-70
2022/04/19 05:16:47;;;;;;;7.80;4.83;;;6.40;99.90;;;;;;5033165;28;20181;-68
2022/04/19 05:19:13;;;;;;;4.17;3.77;;;6.40;99.90;;;;;;5032773;28;20444;-68
2022/04/19 05:21:38;;;;;;;5.87;4.10;;;6.50;99.90;;;;;;5033041;28;20214;-67
2022/04/19 05:24:05;;;;;;;6.40;3.87;;;6.60;99.90;;;;;;5033085;28;20174;-68
2022/04/19 05:26:31;;;;;;;4.90;4.40;;;6.60;99.90;;;;;;5033064;28;20174;-67
2022/04/19 05:28:56;;;;;;;5.97;4.80;;;6.70;99.90;;;;;;5032683;28;20427;-68
2022/04/19 05:31:22;;;;;;;9.03;4.87;;;6.70;99.90;;;;;;5032882;28;20261;-67
2022/04/19 05:33:48;;;;;;;11.03;5.30;;;6.80;99.90;;;;;;5032737;28;20197;-68
2022/04/19 05:36:13;;;;;;;7.63;4.40;;;7.00;99.90;;;;;;5033163;28;20531;-68
2022/04/19 05:38:39;;;;;;;6.60;4.73;;;7.10;99.90;;;;;;5032573;28;20174;-69
2022/04/19 05:41:04;;;;;;;8.10;4.70;;;7.40;99.90;;;;;;5032778;28;20634;-68
2022/04/19 05:43:30;;;;;;;7.20;4.57;;;7.60;99.90;;;;;;5032792;28;20194;-68
2022/04/19 05:45:58;;;;;;;8.17;4.70;;;7.90;99.90;;;;;;5032624;28;20178;-70
2022/04/19 05:48:24;;;;;;;5.00;4.30;;;8.20;99.90;;;;;;5032260;28;20174;-67
2022/04/19 05:50:50;;;;;;;9.73;5.13;;;8.50;99.90;;;;;;5032559;28;20435;-68
2022/04/19 05:53:15;;;;;;;6.63;5.27;;;8.70;99.90;;;;;;5032470;28;20453;-67
2022/04/19 05:55:41;;;;;;;9.30;7.30;;;8.80;99.90;;;;;;5032580;28;20632;-67
2022/04/19 05:58:06;;;;;;;10.37;5.23;;;9.00;99.90;;;;;;5032327;28;20166;-67
2022/04/19 06:00:32;;;;;;;5.37;4.83;;;9.00;99.90;;;;;;5032190;28;20174;-67
2022/04/19 06:05:41;;;;;;;12.00;5.83;;;9.00;99.90;;;;;;5032489;28;20181;-67
2022/04/19 06:08:06;;;;;;;9.17;5.67;;;9.10;99.90;;;;;;5032428;28;20838;-68
2022/04/19 06:10:32;;;;;;;7.13;6.10;;;9.10;99.90;;;;;;5032143;28;20171;-68
2022/04/19 06:12:57;;;;;;;5.03;4.53;;;9.30;99.90;;;;;;5032147;28;20198;-68
2022/04/19 06:15:23;;;;;;;8.00;5.27;;;9.40;99.90;;;;;;5032316;28;20175;-68
2022/04/19 06:17:48;;;;;;;6.10;5.07;;;9.50;99.90;;;;;;5032159;28;20174;-69
2022/04/19 06:20:15;;;;;;;6.40;5.10;;;9.60;99.90;;;;;;5031894;28;20166;-67
2022/04/19 06:22:40;;;;;;;8.60;5.60;;;9.80;99.90;;;;;;5032060;28;20194;-68
2022/04/19 06:25:06;;;;;;;9.07;5.93;;;9.80;99.90;;;;;;5031854;28;21029;-68
2022/04/19 06:27:32;;;;;;;6.80;6.10;;;9.90;99.90;;;;;;5032129;28;20178;-67
2022/04/19 06:29:58;;;;;;;7.20;5.60;;;10.20;99.90;;;;;;5031707;28;20844;-69
2022/04/19 06:32:24;;;;;;;11.10;4.90;;;10.40;99.90;;;;;;5031800;28;20672;-68
2022/04/19 06:34:50;;;;;;;9.13;5.00;;;10.90;99.90;;;;;;5032022;28;20163;-68
2022/04/19 06:37:15;;;;;;;6.73;5.03;;;11.20;99.90;;;;;;5031839;28;20781;-68
2022/04/19 06:39:41;;;;;;;6.67;5.10;;;11.40;99.90;;;;;;5031664;28;20295;-67
2022/04/19 06:42:07;;;;;;;5.57;5.07;;;11.50;99.90;;;;;;5031865;28;20798;-68
2022/04/19 06:44:34;;;;;;;6.70;5.10;;;11.80;99.90;;;;;;5031847;28;20178;-67
2022/04/19 06:46:59;;;;;;;6.20;5.70;;;12.10;99.90;;;;;;5031766;28;20413;-68
2022/04/19 06:49:25;;;;;;;7.10;6.40;;;12.30;99.90;;;;;;5031534;28;20420;-69
2022/04/19 06:51:51;;;;;;;8.50;5.87;;;12.50;99.90;;;;;;5031707;28;20190;-68
2022/04/19 06:54:16;;;;;;;5.63;5.00;;;12.80;99.20;;;;;;5031843;28;20178;-68
2022/04/19 06:56:45;;;;;;;6.03;4.60;;;12.90;98.70;;;;;;5031799;28;20535;-68
2022/04/19 06:59:10;;;;;;;5.97;5.50;;;12.90;99.10;;;;;;5031251;28;20542;-68
2022/04/19 07:01:39;;;;;;;9.20;4.87;;;13.10;98.70;;;;;;5031830;28;20436;-68
2022/04/19 07:04:05;;;;;;;7.73;5.10;;;13.20;99.10;;;;;;5031899;28;20678;-69
2022/04/19 07:06:31;;;;;;;7.27;6.43;;;13.20;98.10;;;;;;5031635;28;20420;-68
2022/04/19 07:08:56;;;;;;;9.23;8.30;;;13.20;97.20;;;;;;5030803;28;20217;-67
2022/04/19 07:11:22;;;;;;;7.00;5.57;;;13.20;96.70;;;;;;5031493;28;20177;-67
2022/04/19 07:13:47;;;;;;;8.57;7.20;;;13.40;96.10;;;;;;5031552;28;20206;-68
2022/04/19 07:16:15;;;;;;;7.53;6.23;;;13.50;95.80;;;;;;5031550;28;20540;-67
2022/04/19 07:18:41;;;;;;;6.57;5.87;;;13.60;95.30;;;;;;5031264;28;20169;-67
2022/04/19 07:26:48;;;;;;;7.47;6.23;;;14.10;93.80;;;;;;5019359;28;20432;-69
2022/04/19 07:29:15;;;;;;;9.00;6.57;;;14.40;92.80;;;;;;5031107;28;20926;-68
2022/04/19 07:31:43;;;;;;;6.83;5.23;;;14.50;92.40;;;;;;5031365;28;20667;-68
2022/04/19 07:34:09;;;;;;;6.50;5.70;;;14.80;92.10;;;;;;5031326;28;20456;-68
2022/04/19 07:36:39;;;;;;;9.77;8.77;;;14.90;91.20;;;;;;5031292;28;20441;-68
2022/04/19 07:39:06;;;;;;;6.23;5.57;;;15.00;90.60;;;;;;5025946;28;20707;-68
2022/04/19 07:41:34;;;;;;;6.50;5.90;;;15.20;90.00;;;;;;5015125;28;20434;-68
2022/04/19 07:44:01;;;;;;;9.93;5.90;;;15.40;88.50;;;;;;5020520;28;20938;-68
2022/04/19 07:46:26;;;;;;;9.77;8.63;;;15.60;87.40;;;;;;5031281;28;20992;-68
2022/04/19 07:48:52;;;;;;;7.10;6.20;;;15.80;84.90;;;;;;5028010;28;20429;-69
2022/04/19 07:51:18;;;;;;;5.97;5.37;;;15.80;81.60;;;;;;5031480;28;20220;-68
2022/04/19 07:53:44;;;;;;;6.13;5.53;;;15.80;80.40;;;;;;5031615;28;20194;-70
2022/04/19 07:56:10;;;;;;;7.13;6.20;;;15.60;80.10;;;;;;5032341;28;20409;-69
2022/04/19 07:58:35;;;;;;;6.27;5.67;;;15.50;80.40;;;;;;5027622;28;20344;-69
2022/04/19 08:01:01;;;;;;;7.17;5.40;;;15.70;78.00;;;;;;5031228;28;20482;-67
2022/04/19 08:03:27;;;;;;;6.93;6.33;;;15.80;78.10;;;;;;5031249;28;20229;-70
2022/04/19 08:05:53;;;;;;;6.50;5.50;;;15.90;76.90;;;;;;5031338;28;20186;-69
2022/04/19 08:08:21;;;;;;;12.40;5.80;;;15.90;74.50;;;;;;5026440;28;20483;-68
2022/04/19 08:10:49;;;;;;;8.77;6.83;;;16.10;74.00;;;;;;5030593;28;20436;-69
2022/04/19 08:13:16;;;;;;;7.03;5.83;;;16.20;73.30;;;;;;5030773;28;20453;-70
2022/04/19 08:15:41;;;;;;;19.50;6.60;;;16.40;72.30;;;;;;5030937;28;20424;-68
2022/04/19 08:18:11;;;;;;;9.53;5.50;;;16.70;71.20;;;;;;5027003;28;20433;-73
2022/04/19 08:20:37;;;;;;;9.27;8.37;;;16.90;68.40;;;;;;5029719;28;20181;-68
2022/04/19 08:23:03;;;;;;;8.73;6.63;;;16.90;68.60;;;;;;5030996;28;20842;-67
2022/04/19 08:25:29;;;;;;;6.87;5.13;;;17.30;68.30;;;;;;5030821;28;20181;-67
2022/04/19 08:27:54;;;;;;;6.90;5.97;;;17.60;65.00;;;;;;5028850;28;20824;-69
2022/04/19 08:30:20;;;;;;;6.17;5.03;;;17.80;63.20;;;;;;5025928;28;20416;-70
2022/04/19 08:32:46;;;;;;;5.90;5.10;;;17.90;62.30;;;;;;5030631;28;20209;-68
2022/04/19 08:35:12;;;;;;;6.47;4.90;;;18.10;61.50;;;;;;5030926;28;20546;-69
2022/04/19 08:37:38;;;;;;;6.93;6.23;;;18.30;61.30;;;;;;5030426;28;20182;-68
2022/04/19 08:40:14;;;;;;;7.47;5.57;;;18.60;59.70;;;;;;5023771;28;20429;-68
2022/04/19 08:42:40;;;;;;;7.97;7.17;;;18.50;58.70;;;;;;5030483;28;20446;-68
2022/04/19 08:45:08;;;;;;;7.63;6.03;;;18.70;59.50;;;;;;5030611;28;20425;-69
2022/04/19 08:47:40;;;;;;;15.43;6.63;;;18.90;58.10;;;;;;5030114;28;20523;-71
2022/04/19 08:50:09;;;;;;;5.37;4.90;;;19.10;57.60;;;;;;5024251;28;20440;-67
2022/04/19 08:52:35;;;;;;;9.00;6.00;;;19.30;57.70;;;;;;5030687;28;20479;-69
2022/04/19 08:57:45;;;;;;;5.77;5.27;;;19.70;56.60;;;;;;5029783;28;20181;-71
2022/04/19 09:00:12;;;;;;;6.40;5.13;;;19.80;55.60;;;;;;5024296;28;20843;-68
2022/04/19 09:02:38;;;;;;;6.10;5.53;;;19.70;55.70;;;;;;5030406;28;20609;-69
2022/04/19 09:05:21;;;;;;;7.53;5.80;;;19.50;55.50;;;;;;5030334;28;20548;-69
2022/04/19 09:07:49;;;;;;;5.80;5.13;;;19.60;54.90;;;;;;5029462;28;20809;-71
2022/04/19 09:10:24;;;;;;;6.70;5.40;;;20.00;54.50;;;;;;5019781;28;20487;-69
2022/04/19 09:13:17;;;;;;;9.07;5.63;;;20.30;53.40;;;;;;5018399;28;20461;-68
2022/04/19 09:15:44;;;;;;;6.80;5.40;;;20.80;52.70;;;;;;5010497;28;21064;-68
2022/04/19 09:18:29;;;;;;;6.80;4.77;;;21.00;53.00;;;;;;5009143;28;20519;-70
2022/04/19 09:20:56;;;;;;;9.80;4.87;;;21.50;50.00;;;;;;5028019;28;20436;-68
2022/04/19 09:23:22;;;;;;;5.77;4.53;;;21.80;49.00;;;;;;5029944;28;20845;-69
2022/04/19 09:26:08;;;;;;;6.03;5.43;;;21.90;49.40;;;;;;5030086;28;20958;-70
2022/04/19 09:28:34;;;;;;;5.60;5.10;;;21.80;48.40;;;;;;5023215;28;20856;-69
2022/04/19 09:31:01;;;;;;;9.30;5.67;;;21.90;48.50;;;;;;5024330;28;20507;-70
2022/04/19 09:33:30;;;;;;;6.00;5.40;;;21.70;48.00;;;;;;5020571;28;20206;-69
2022/04/19 09:36:03;;;;;;;8.23;5.60;;;22.00;47.30;;;;;;5029668;28;20934;-69
2022/04/19 09:38:49;;;;;;;6.80;5.53;;;22.70;46.90;;;;;;5030727;28;20436;-69
2022/04/19 09:41:27;;;;;;;6.03;5.53;;;23.40;46.60;;;;;;5032416;28;20428;-70
2022/04/19 09:44:06;;;;;;;6.03;5.00;;;24.20;45.00;;;;;;5032675;28;20421;-69
2022/04/19 09:46:32;;;;;;;7.40;5.30;;;24.40;43.90;;;;;;5031418;28;20453;-69
2022/04/19 09:48:57;;;;;;;5.83;5.23;;;24.70;43.70;;;;;;5028376;28;20440;-69
2022/04/19 09:51:30;;;;;;;5.87;5.30;;;24.80;42.30;;;;;;5032480;28;20568;-69
2022/04/19 09:53:56;;;;;;;5.67;4.50;;;25.50;41.40;;;;;;5032361;28;20209;-69
2022/04/19 09:56:22;;;;;;;5.30;4.80;;;26.10;40.90;;;;;;5032425;28;20934;-70
2022/04/19 09:58:53;;;;;;;5.00;4.60;;;26.00;38.60;;;;;;5028452;28;20228;-67
2022/04/19 10:09:36;;;;;;;7.20;4.40;;;28.00;34.20;;;;;;5028322;28;20910;-67
2022/04/19 10:12:07;;;;;;;4.50;4.10;;;28.50;32.70;;;;;;5031922;28;20445;-67
2022/04/19 10:14:34;;;;;;;4.07;3.67;;;28.70;32.40;;;;;;5032255;28;20425;-70
2022/04/19 10:17:01;;;;;;;4.23;3.83;;;28.70;31.10;;;;;;5032147;28;20421;-70
2022/04/19 10:19:27;;;;;;;4.43;4.03;;;28.20;31.30;;;;;;5028079;28;20428;-68
2022/04/19 10:21:54;;;;;;;4.10;3.80;;;28.70;31.40;;;;;;5031992;28;20445;-67
2022/04/19 10:24:20;;;;;;;5.07;4.57;;;28.80;31.00;;;;;;5032134;28;20409;-68
2022/04/19 10:26:51;;;;;;;4.13;3.83;;;29.10;30.60;;;;;;5031868;28;20439;-68
2022/04/19 10:29:25;;;;;;;6.30;4.60;;;29.40;29.90;;;;;;5027890;28;20424;-69
2022/04/19 10:32:02;;;;;;;5.40;5.00;;;30.50;29.30;;;;;;5031777;28;20444;-68
2022/04/19 10:34:30;;;;;;;4.30;3.93;;;29.40;28.90;;;;;;5032131;28;20869;-67
2022/04/19 10:37:04;;;;;;;4.23;3.93;;;29.80;28.40;;;;;;5031779;28;21222;-69
2022/04/19 10:39:32;;;;;;;4.40;4.00;;;29.70;28.80;;;;;;5027871;28;20428;-69
2022/04/19 10:42:03;;;;;;;5.10;4.70;;;29.80;28.20;;;;;;5031735;28;20440;-67
2022/04/19 10:44:40;;;;;;;3.80;3.57;;;30.80;28.20;;;;;;5032093;28;20417;-68
2022/04/19 10:47:17;;;;;;;6.00;4.30;;;31.00;27.90;;;;;;5031832;28;20409;-71
2022/04/19 10:50:00;;;;;;;4.20;3.90;;;31.60;27.30;;;;;;5027726;28;20427;-67
2022/04/19 10:52:40;;;;;;;4.83;4.27;;;32.00;26.80;;;;;;5031604;28;20479;-67
2022/04/19 10:55:24;;;;;;;3.70;3.40;;;32.10;25.90;;;;;;5031890;28;20419;-68
2022/04/19 10:58:06;;;;;;;4.33;3.93;;;31.60;26.10;;;;;;5030265;28;20420;-70
2022/04/19 11:00:35;;;;;;;5.20;4.20;;;31.60;26.50;;;;;;5031048;28;20478;-68
2022/04/19 11:03:03;;;;;;;4.40;4.10;;;31.20;27.00;;;;;;5031506;28;20809;-68
2022/04/19 11:05:42;;;;;;;4.23;3.93;;;31.20;26.30;;;;;;5031756;28;20925;-67
2022/04/19 11:08:26;;;;;;;4.47;4.17;;;31.70;26.00;;;;;;5028313;28;20873;-71
2022/04/19 11:11:04;;;;;;;3.80;3.50;;;31.50;25.80;;;;;;5032381;28;20793;-67
2022/04/19 11:13:36;;;;;;;5.40;4.90;;;31.00;25.80;;;;;;5035253;28;20587;-68
2022/04/19 11:16:08;;;;;;;4.87;4.33;;;32.20;25.60;;;;;;5035595;28;20420;-68
2022/04/19 11:18:38;;;;;;;13.20;5.53;;;32.70;25.10;;;;;;5031864;28;20496;-68
2022/04/19 11:21:05;;;;;;;4.47;4.17;;;33.20;25.60;;;;;;5034736;28;20421;-68
2022/04/19 11:23:44;;;;;;;5.37;5.07;;;33.00;25.20;;;;;;5035223;28;20465;-68
2022/04/19 11:26:36;;;;;;;4.37;3.90;;;33.40;24.60;;;;;;5034225;28;20807;-68
2022/04/19 11:29:10;;;;;;;6.00;5.60;;;34.70;24.30;;;;;;5022519;28;20428;-68
2022/04/19 11:31:45;;;;;;;4.80;4.50;;;35.00;24.40;;;;;;5033529;28;20444;-70
2022/04/19 11:34:15;;;;;;;5.10;4.70;;;34.00;24.20;;;;;;5024581;28;20808;-69
2022/04/19 11:36:41;;;;;;;4.60;4.20;;;34.80;24.20;;;;;;5015263;28;20445;-71
2022/04/19 11:39:07;;;;;;;5.10;4.70;;;34.50;24.10;;;;;;5022855;28;20443;-70
2022/04/19 11:46:51;;;;;;;5.07;4.70;;;31.80;25.30;;;;;;5031706;28;20432;-68
2022/04/19 11:49:19;;;;;;;5.63;5.13;;;31.60;25.70;;;;;;5028134;28;20523;-69
2022/04/19 11:51:49;;;;;;;4.83;4.43;;;31.70;25.00;;;;;;5031122;28;20449;-69
2022/04/19 11:54:31;;;;;;;4.87;4.57;;;33.10;24.60;;;;;;5031492;28;20420;-69
2022/04/19 11:57:08;;;;;;;4.70;4.30;;;33.60;24.20;;;;;;5031672;28;20801;-68
2022/04/19 11:59:38;;;;;;;5.93;4.20;;;33.20;23.80;;;;;;5027457;28;20436;-68
2022/04/19 12:02:12;;;;;;;5.40;4.97;;;32.90;24.90;;;;;;5031093;28;20491;-68
2022/04/19 12:04:47;;;;;;;7.17;6.50;;;32.00;24.30;;;;;;5031261;28;20420;-70
2022/04/19 12:07:12;;;;;;;5.37;4.30;;;31.70;24.90;;;;;;5031546;28;20427;-68
2022/04/19 12:09:38;;;;;;;4.80;4.40;;;31.60;24.80;;;;;;5027355;28;20462;-68
2022/04/19 12:12:06;;;;;;;5.07;4.67;;;31.60;25.00;;;;;;5031134;28;20190;-68
2022/04/19 12:14:32;;;;;;;9.40;6.07;;;32.60;24.90;;;;;;5031259;28;20560;-68
2022/04/19 12:17:00;;;;;;;5.20;4.60;;;33.40;24.40;;;;;;5031389;28;20459;-68
2022/04/19 12:19:38;;;;;;;5.50;5.00;;;32.80;24.70;;;;;;5027221;28;20448;-68
2022/04/19 12:22:21;;;;;;;5.83;5.43;;;34.00;24.50;;;;;;5030731;28;20527;-69
2022/04/19 12:24:48;;;;;;;5.93;5.43;;;33.10;23.90;;;;;;5030948;28;20942;-70
2022/04/19 12:27:14;;;;;;;5.07;4.67;;;34.00;23.90;;;;;;5031726;28;20425;-67
2022/04/19 12:29:58;;;;;;;4.87;4.57;;;34.20;23.80;;;;;;5027093;28;20520;-68
2022/04/19 12:32:23;;;;;;;5.43;5.03;;;34.70;23.70;;;;;;5030883;28;20221;-68
2022/04/19 12:34:50;;;;;;;5.30;4.90;;;35.00;23.90;;;;;;5030921;28;20471;-68
2022/04/19 12:37:21;;;;;;;6.00;5.40;;;34.90;23.50;;;;;;5030954;28;20747;-71
2022/04/19 12:40:16;;;;;;;5.60;4.93;;;35.30;23.50;;;;;;5027167;28;20437;-68
2022/04/19 12:42:49;;;;;;;4.67;4.37;;;35.20;24.10;;;;;;5025715;28;20487;-68
2022/04/19 12:45:17;;;;;;;4.77;4.47;;;35.70;23.10;;;;;;5030557;28;20508;-68
2022/04/19 12:47:47;;;;;;;4.30;4.00;;;35.00;22.70;;;;;;5031056;28;20902;-67
2022/04/19 12:50:22;;;;;;;3.90;3.60;;;33.60;22.70;;;;;;5027680;28;20479;-70
2022/04/19 12:52:47;;;;;;;5.27;4.77;;;32.80;23.80;;;;;;5030483;28;20819;-69
2022/04/19 12:55:14;;;;;;;4.63;4.33;;;33.90;23.30;;;;;;5030736;28;20424;-68
2022/04/19 12:57:42;;;;;;;4.93;4.53;;;33.00;23.40;;;;;;5030291;28;20285;-70
2022/04/19 13:00:09;;;;;;;6.40;3.90;;;32.80;23.50;;;;;;5026508;28;20437;-67
2022/04/19 13:02:36;;;;;;;3.97;3.77;;;32.20;23.90;;;;;;5030056;28;20464;-68
2022/04/19 13:05:02;;;;;;;5.60;5.10;;;32.40;23.70;;;;;;5030626;28;20424;-67
2022/04/19 13:12:50;;;;;;;4.50;4.20;;;34.10;23.10;;;;;;5030140;28;20449;-67
2022/04/19 13:15:16;;;;;;;4.60;4.20;;;34.40;23.50;;;;;;5030072;28;20436;-67
2022/04/19 13:17:42;;;;;;;5.40;5.00;;;34.60;22.90;;;;;;5029703;28;20962;-67
2022/04/19 13:20:09;;;;;;;4.83;4.43;;;35.20;23.10;;;;;;5023592;28;20232;-66
2022/04/19 13:22:36;;;;;;;3.90;3.60;;;35.70;22.90;;;;;;5030088;28;20552;-70
2022/04/19 13:25:07;;;;;;;4.30;4.00;;;35.80;22.00;;;;;;5031978;28;20417;-69
2022/04/19 13:27:36;;;;;;;4.47;4.17;;;35.60;22.00;;;;;;5033056;28;20413;-69
2022/04/19 13:30:07;;;;;;;4.37;3.97;;;35.00;22.60;;;;;;5025258;28;20837;-67
2022/04/19 13:32:32;;;;;;;5.00;4.70;;;34.80;22.90;;;;;;5032647;28;20441;-66
2022/04/19 13:34:58;;;;;;;4.60;4.23;;;34.10;22.80;;;;;;5032453;28;20428;-67